TimeCST,TemperatureF,Dew PointF,Humidity,Sea Level PressureIn,VisibilityMPH,Wind Direction,Wind SpeedMPH,Gust SpeedMPH,PrecipitationIn,Events,Conditions,WindDirDegrees,DateUTC
12:51 AM,66.0,64.9,96,30.13,9.0,East,3.5,-,0.06,Rain,Light Rain,80,2012-12-05 06:51:00
1:51 AM,66.9,64.9,93,30.13,10.0,SE,4.6,-,0.00,Rain,Light Rain,130,2012-12-05 07:51:00
2:48 AM,68.0,68.0,100,30.14,1.8,SW,5.8,-,0.13,Rain,Rain,220,2012-12-05 08:48:00
2:51 AM,68.0,68.0,100,30.14,1.8,WSW,6.9,-,0.15,Rain,Heavy Rain,240,2012-12-05 08:51:00
3:06 AM,66.2,66.2,100,30.14,1.0,SSW,13.8,19.6,0.13,Rain,Heavy Rain,210,2012-12-05 09:06:00
3:15 AM,66.2,66.2,100,30.14,1.2,SW,10.4,24.2,0.28,Rain,Heavy Rain,230,2012-12-05 09:15:00
3:28 AM,66.2,66.2,100,30.13,2.0,SSW,8.1,-,0.35,Rain,Heavy Rain,200,2012-12-05 09:28:00
3:51 AM,66.9,66.9,100,30.12,2.0,South,4.6,-,0.47,Rain,Rain,170,2012-12-05 09:51:00
4:13 AM,66.2,66.2,100,30.11,4.0,SE,6.9,-,0.11,Rain,Rain,130,2012-12-05 10:13:00
4:51 AM,64.9,64.9,100,30.09,8.0,ESE,10.4,-,0.15,Rain,Light Rain,110,2012-12-05 10:51:00
5:07 AM,66.2,66.2,100,30.09,9.0,SE,10.4,-,0.00,,Mostly Cloudy,130,2012-12-05 11:07:00
5:51 AM,66.0,64.9,96,30.10,10.0,SSE,11.5,-,0.00,,Overcast,160,2012-12-05 11:51:00
6:51 AM,66.9,66.0,97,30.11,10.0,SSE,13.8,-,N/A,,Scattered Clouds,150,2012-12-05 12:51:00
8:51 AM,64.0,63.0,96,30.14,7.0,SE,5.8,-,0.02,Rain,Light Rain,130,2012-12-05 14:51:00
9:51 AM,66.0,64.0,93,30.13,8.0,SE,5.8,-,0.05,Rain,Light Rain,130,2012-12-05 15:51:00
10:51 AM,64.9,64.9,100,30.12,9.0,Calm,Calm,-,0.01,Rain,Light Rain,0,2012-12-05 16:51:00
11:51 AM,66.9,66.0,97,30.10,9.0,NNW,3.5,-,0.01,,Overcast,340,2012-12-05 17:51:00
12:51 PM,66.9,66.0,97,30.07,10.0,NE,3.5,-,0.00,Rain,Light Rain,50,2012-12-05 18:51:00
1:51 PM,66.9,64.0,90,30.05,5.0,Calm,Calm,-,0.00,Rain,Rain,0,2012-12-05 19:51:00
2:40 PM,66.2,66.2,100,30.05,4.0,SW,9.2,-,0.02,Rain,Light Rain,230,2012-12-05 20:40:00
2:51 PM,66.0,66.0,100,30.04,10.0,Calm,Calm,-,0.02,,Overcast,0,2012-12-05 20:51:00
3:51 PM,66.0,64.9,96,30.03,10.0,Calm,Calm,-,0.00,,Mostly Cloudy,0,2012-12-05 21:51:00
4:51 PM,64.9,64.9,100,30.04,8.0,Variable,4.6,-,0.02,Rain,Light Rain,0,2012-12-05 22:51:00
5:51 PM,64.0,64.0,100,30.04,10.0,NE,9.2,-,0.01,,Partly Cloudy,50,2012-12-05 23:51:00
6:51 PM,64.9,64.0,97,30.04,10.0,East,9.2,-,N/A,,Partly Cloudy,80,2012-12-06 00:51:00
7:51 PM,64.0,63.0,96,30.04,9.0,East,8.1,-,0.00,Rain,Light Rain,100,2012-12-06 01:51:00
8:51 PM,64.0,62.1,93,30.05,10.0,East,5.8,-,0.03,,Mostly Cloudy,90,2012-12-06 02:51:00
9:51 PM,63.0,62.1,97,30.04,10.0,East,3.5,-,N/A,,Mostly Cloudy,80,2012-12-06 03:51:00
10:51 PM,62.1,62.1,100,30.04,10.0,East,3.5,-,N/A,,Clear,90,2012-12-06 04:51:00
11:51 PM,60.1,60.1,100,30.04,4.0,East,3.5,-,N/A,,Mostly Cloudy,80,2012-12-06 05:51:00